sensor_id;sensor_type;location;lat;lon;timestamp;pressure;altitude;pressure_sealevel;temperature;humidity
12879;BME280;20617;49.476;10.986;2023-01-28T00:01:31;98838.09;;;2.62;100.00
12879;BME280;20617;49.476;10.986;2023-01-28T00:03:36;98835.50;;;2.56;100.00
12879;BME280;20617;49.476;10.986;2023-01-28T00:05:42;98838.09;;;2.54;100.00
12879;BME280;20617;49.476;10.986;2023-01-28T00:07:50;98838.09;;;2.54;100.00
12879;BME280;20617;49.476;10.986;2023-01-28T00:09:55;98835.50;;;2.56;100.00
12879;BME280;20617;49.476;10.986;2023-01-28T00:12:00;98832.06;;;2.61;100.00
12879;BME280;20617;49.476;10.986;2023-01-28T00:14:05;98829.50;;;2.57;100.00
12879;BME280;20617;49.476;10.986;2023-01-28T00:16:10;98833.78;;;2.58;100.00
12879;BME280;20617;49.476;10.986;2023-01-28T00:18:15;98825.22;;;2.53;100.00
12879;BME280;20617;49.476;10.986;2023-01-28T00:20:19;98828.66;;;2.52;100.00
12879;BME280;20617;49.476;10.986;2023-01-28T00:22:24;98830.34;;;2.49;100.00
12879;BME280;20617;49.476;10.986;2023-01-28T00:24:32;98837.22;;;2.47;100.00
12879;BME280;20617;49.476;10.986;2023-01-28T00:26:37;98832.06;;;2.49;100.00
12879;BME280;20617;49.476;10.986;2023-01-28T00:28:43;98830.38;;;2.54;100.00
12879;BME280;20617;49.476;10.986;2023-01-28T00:30:49;98830.38;;;2.54;100.00
12879;BME280;20617;49.476;10.986;2023-01-28T00:32:54;98832.94;;;2.45;100.00
12879;BME280;20617;49.476;10.986;2023-01-28T00:34:59;98823.50;;;2.52;100.00
12879;BME280;20617;49.476;10.986;2023-01-28T00:37:04;98830.34;;;2.63;100.00
12879;BME280;20617;49.476;10.986;2023-01-28T00:39:10;98827.78;;;2.68;100.00
12879;BME280;20617;49.476;10.986;2023-01-28T00:41:23;98830.34;;;2.60;100.00
12879;BME280;20617;49.476;10.986;2023-01-28T00:43:29;98831.19;;;2.67;100.00
12879;BME280;20617;49.476;10.986;2023-01-28T00:45:33;98838.09;;;2.65;100.00
12879;BME280;20617;49.476;10.986;2023-01-28T00:47:39;98828.63;;;2.61;100.00
12879;BME280;20617;49.476;10.986;2023-01-28T00:49:46;98829.50;;;2.57;100.00
12879;BME280;20617;49.476;10.986;2023-01-28T00:51:51;98829.50;;;2.49;100.00
12879;BME280;20617;49.476;10.986;2023-01-28T00:53:56;98835.53;;;2.45;100.00
12879;BME280;20617;49.476;10.986;2023-01-28T00:56:03;98833.78;;;2.47;100.00
12879;BME280;20617;49.476;10.986;2023-01-28T00:58:12;98837.22;;;2.49;100.00
12879;BME280;20617;49.476;10.986;2023-01-28T01:00:18;98832.94;;;2.46;100.00
12879;BME280;20617;49.476;10.986;2023-01-28T01:02:28;98838.06;;;2.46;100.00
12879;BME280;20617;49.476;10.986;2023-01-28T01:04:33;98844.06;;;2.38;100.00
12879;BME280;20617;49.476;10.986;2023-01-28T01:06:39;98844.94;;;2.37;100.00
12879;BME280;20617;49.476;10.986;2023-01-28T01:08:44;98837.22;;;2.38;100.00
12879;BME280;20617;49.476;10.986;2023-01-28T01:10:51;98842.38;;;2.31;100.00
12879;BME280;20617;49.476;10.986;2023-01-28T01:12:56;98850.06;;;2.26;100.00
12879;BME280;20617;49.476;10.986;2023-01-28T01:15:05;98849.22;;;2.32;100.00
12879;BME280;20617;49.476;10.986;2023-01-28T01:17:11;98849.22;;;2.36;100.00
12879;BME280;20617;49.476;10.986;2023-01-28T01:19:16;98850.91;;;2.40;100.00
12879;BME280;20617;49.476;10.986;2023-01-28T01:21:22;98854.34;;;2.35;100.00
12879;BME280;20617;49.476;10.986;2023-01-28T01:23:29;98850.94;;;2.39;100.00
12879;BME280;20617;49.476;10.986;2023-01-28T01:25:34;98854.34;;;2.44;100.00
12879;BME280;20617;49.476;10.986;2023-01-28T01:27:39;98851.78;;;2.33;100.00
12879;BME280;20617;49.476;10.986;2023-01-28T01:29:44;98857.75;;;2.35;100.00
12879;BME280;20617;49.476;10.986;2023-01-28T01:31:51;98850.94;;;2.39;100.00
12879;BME280;20617;49.476;10.986;2023-01-28T01:33:56;98851.78;;;2.33;100.00
12879;BME280;20617;49.476;10.986;2023-01-28T01:36:01;98849.22;;;2.42;100.00
12879;BME280;20617;49.476;10.986;2023-01-28T01:38:06;98849.22;;;2.42;100.00
12879;BME280;20617;49.476;10.986;2023-01-28T01:40:12;98863.78;;;2.43;100.00
12879;BME280;20617;49.476;10.986;2023-01-28T01:42:17;98860.34;;;2.35;100.00
12879;BME280;20617;49.476;10.986;2023-01-28T01:44:51;98860.34;;;2.41;100.00
12879;BME280;20617;49.476;10.986;2023-01-28T01:47:01;98866.34;;;2.42;100.00
12879;BME280;20617;49.476;10.986;2023-01-28T01:49:21;98871.47;;;2.43;100.00
12879;BME280;20617;49.476;10.986;2023-01-28T01:51:30;98865.50;;;2.44;100.00
12879;BME280;20617;49.476;10.986;2023-01-28T01:53:36;98871.50;;;2.48;100.00
12879;BME280;20617;49.476;10.986;2023-01-28T01:55:49;98874.91;;;2.52;100.00
12879;BME280;20617;49.476;10.986;2023-01-28T01:57:55;98873.19;;;2.55;100.00
12879;BME280;20617;49.476;10.986;2023-01-28T02:00:03;98868.91;;;2.57;100.00
12879;BME280;20617;49.476;10.986;2023-01-28T02:02:19;98873.19;;;2.55;100.00
12879;BME280;20617;49.476;10.986;2023-01-28T02:04:26;98872.34;;;2.58;100.00
12879;BME280;20617;49.476;10.986;2023-01-28T02:06:33;98871.47;;;2.53;100.00
12879;BME280;20617;49.476;10.986;2023-01-28T02:08:39;98868.03;;;2.58;100.00
12879;BME280;20617;49.476;10.986;2023-01-28T02:10:47;98871.50;;;2.51;100.00
12879;BME280;20617;49.476;10.986;2023-01-28T02:12:56;98868.06;;;2.52;100.00
12879;BME280;20617;49.476;10.986;2023-01-28T02:15:04;98876.59;;;2.56;100.00
12879;BME280;20617;49.476;10.986;2023-01-28T02:17:10;98862.91;;;2.60;100.00
12879;BME280;20617;49.476;10.986;2023-01-28T02:19:21;98874.91;;;2.64;100.00
12879;BME280;20617;49.476;10.986;2023-01-28T02:21:50;98877.47;;;2.67;100.00
12879;BME280;20617;49.476;10.986;2023-01-28T02:24:18;98868.03;;;2.67;100.00
12879;BME280;20617;49.476;10.986;2023-01-28T02:26:54;98869.75;;;2.61;100.00
12879;BME280;20617;49.476;10.986;2023-01-28T02:29:08;98876.63;;;2.66;100.00
12879;BME280;20617;49.476;10.986;2023-01-28T02:31:21;98874.91;;;2.70;100.00
12879;BME280;20617;49.476;10.986;2023-01-28T02:33:31;98865.47;;;2.78;100.00
12879;BME280;20617;49.476;10.986;2023-01-28T02:35:42;98869.78;;;2.82;100.00
12879;BME280;20617;49.476;10.986;2023-01-28T02:37:53;98868.91;;;2.83;100.00
12879;BME280;20617;49.476;10.986;2023-01-28T02:40:02;98868.91;;;2.83;100.00
12879;BME280;20617;49.476;10.986;2023-01-28T02:42:11;98868.91;;;2.80;100.00
12879;BME280;20617;49.476;10.986;2023-01-28T02:44:21;98866.34;;;2.80;100.00
12879;BME280;20617;49.476;10.986;2023-01-28T02:46:34;98866.31;;;2.83;100.00
12879;BME280;20617;49.476;10.986;2023-01-28T02:48:52;98865.47;;;2.80;100.00
12879;BME280;20617;49.476;10.986;2023-01-28T02:51:03;98874.91;;;2.78;100.00
12879;BME280;20617;49.476;10.986;2023-01-28T02:53:18;98879.19;;;2.80;100.00
12879;BME280;20617;49.476;10.986;2023-01-28T02:55:44;98878.34;;;2.72;100.00
12879;BME280;20617;49.476;10.986;2023-01-28T02:57:59;98872.31;;;2.79;100.00
12879;BME280;20617;49.476;10.986;2023-01-28T03:00:12;98873.19;;;2.78;100.00
12879;BME280;20617;49.476;10.986;2023-01-28T03:02:22;98883.47;;;2.77;100.00
12879;BME280;20617;49.476;10.986;2023-01-28T03:04:33;98872.31;;;2.79;100.00
12879;BME280;20617;49.476;10.986;2023-01-28T03:06:45;98874.03;;;2.82;100.00
12879;BME280;20617;49.476;10.986;2023-01-28T03:08:54;98880.03;;;2.85;100.00
12879;BME280;20617;49.476;10.986;2023-01-28T03:11:15;98883.47;;;2.83;100.00
12879;BME280;20617;49.476;10.986;2023-01-28T03:13:33;98890.31;;;2.81;100.00
12879;BME280;20617;49.476;10.986;2023-01-28T03:15:52;98892.03;;;2.82;100.00
12879;BME280;20617;49.476;10.986;2023-01-28T03:18:12;98889.47;;;2.80;100.00
12879;BME280;20617;49.476;10.986;2023-01-28T03:20:37;98887.75;;;2.81;100.00
12879;BME280;20617;49.476;10.986;2023-01-28T03:23:00;98887.75;;;2.88;100.00
12879;BME280;20617;49.476;10.986;2023-01-28T03:25:20;98880.88;;;2.89;100.00
12879;BME280;20617;49.476;10.986;2023-01-28T03:27:47;98890.34;;;2.85;100.00
12879;BME280;20617;49.476;10.986;2023-01-28T03:30:13;98895.44;;;2.79;100.00
12879;BME280;20617;49.476;10.986;2023-01-28T03:32:34;98892.06;;;2.74;100.00
12879;BME280;20617;49.476;10.986;2023-01-28T03:34:52;98893.75;;;2.67;100.00
12879;BME280;20617;49.476;10.986;2023-01-28T03:37:10;98896.31;;;2.69;100.00
12879;BME280;20617;49.476;10.986;2023-01-28T03:39:36;98901.47;;;2.72;100.00
12879;BME280;20617;49.476;10.986;2023-01-28T03:41:55;98904.03;;;2.75;100.00
12879;BME280;20617;49.476;10.986;2023-01-28T03:44:00;98908.34;;;2.68;100.00
12879;BME280;20617;49.476;10.986;2023-01-28T03:46:20;98909.19;;;2.63;100.00
12879;BME280;20617;49.476;10.986;2023-01-28T03:48:28;98908.34;;;2.65;100.00
12879;BME280;20617;49.476;10.986;2023-01-28T03:50:36;98911.75;;;2.66;100.00
12879;BME280;20617;49.476;10.986;2023-01-28T03:52:40;98907.47;;;2.66;100.00
12879;BME280;20617;49.476;10.986;2023-01-28T03:55:11;98911.75;;;2.64;100.00
12879;BME280;20617;49.476;10.986;2023-01-28T03:57:19;98913.44;;;2.67;100.00
12879;BME280;20617;49.476;10.986;2023-01-28T03:59:24;98915.19;;;2.65;100.00
12879;BME280;20617;49.476;10.986;2023-01-28T04:01:31;98915.19;;;2.62;100.00
12879;BME280;20617;49.476;10.986;2023-01-28T04:03:39;98917.75;;;2.62;100.00
12879;BME280;20617;49.476;10.986;2023-01-28T04:05:57;98914.31;;;2.64;100.00
12879;BME280;20617;49.476;10.986;2023-01-28T04:08:19;98915.19;;;2.66;100.00
12879;BME280;20617;49.476;10.986;2023-01-28T04:10:39;98918.63;;;2.68;100.00
12879;BME280;20617;49.476;10.986;2023-01-28T04:12:55;98930.63;;;2.68;100.00
12879;BME280;20617;49.476;10.986;2023-01-28T04:15:00;98931.47;;;2.59;100.00
12879;BME280;20617;49.476;10.986;2023-01-28T04:17:19;98922.88;;;2.51;100.00
12879;BME280;20617;49.476;10.986;2023-01-28T04:19:27;98934.88;;;2.55;100.00
12879;BME280;20617;49.476;10.986;2023-01-28T04:21:33;98933.16;;;2.57;100.00
12879;BME280;20617;49.476;10.986;2023-01-28T04:23:39;98941.72;;;2.58;100.00
12879;BME280;20617;49.476;10.986;2023-01-28T04:25:48;98945.16;;;2.64;100.00
12879;BME280;20617;49.476;10.986;2023-01-28T04:27:55;98938.31;;;2.65;100.00
12879;BME280;20617;49.476;10.986;2023-01-28T04:30:03;98942.59;;;2.64;100.00
12879;BME280;20617;49.476;10.986;2023-01-28T04:32:13;98936.59;;;2.65;100.00
12879;BME280;20617;49.476;10.986;2023-01-28T04:34:44;98942.59;;;2.72;100.00
12879;BME280;20617;49.476;10.986;2023-01-28T04:37:00;98940.03;;;2.66;100.00
12879;BME280;20617;49.476;10.986;2023-01-28T04:39:23;98957.16;;;2.67;100.00
12879;BME280;20617;49.476;10.986;2023-01-28T04:41:50;98951.13;;;2.59;100.00
12879;BME280;20617;49.476;10.986;2023-01-28T04:44:05;98951.19;;;2.62;100.00
12879;BME280;20617;49.476;10.986;2023-01-28T04:46:36;98950.28;;;2.61;100.00
12879;BME280;20617;49.476;10.986;2023-01-28T04:48:47;98943.44;;;2.48;100.00
12879;BME280;20617;49.476;10.986;2023-01-28T04:51:07;98951.13;;;2.56;100.00
12879;BME280;20617;49.476;10.986;2023-01-28T04:53:20;98952.88;;;2.60;100.00
12879;BME280;20617;49.476;10.986;2023-01-28T04:55:32;98944.31;;;2.59;100.00
12879;BME280;20617;49.476;10.986;2023-01-28T04:57:37;98949.44;;;2.48;100.00
12879;BME280;20617;49.476;10.986;2023-01-28T04:59:43;98946.88;;;2.52;100.00
12879;BME280;20617;49.476;10.986;2023-01-28T05:01:49;98954.56;;;2.50;100.00
12879;BME280;20617;49.476;10.986;2023-01-28T05:03:55;98953.72;;;2.42;100.00
12879;BME280;20617;49.476;10.986;2023-01-28T05:06:02;98961.41;;;2.36;100.00
12879;BME280;20617;49.476;10.986;2023-01-28T05:08:21;98954.53;;;2.35;100.00
12879;BME280;20617;49.476;10.986;2023-01-28T05:10:26;98962.25;;;2.36;100.00
12879;BME280;20617;49.476;10.986;2023-01-28T05:12:31;98951.13;;;2.36;100.00
12879;BME280;20617;49.476;10.986;2023-01-28T05:14:40;98959.69;;;2.44;100.00
12879;BME280;20617;49.476;10.986;2023-01-28T05:16:50;98960.59;;;2.47;100.00
12879;BME280;20617;49.476;10.986;2023-01-28T05:18:55;98953.72;;;2.48;100.00
12879;BME280;20617;49.476;10.986;2023-01-28T05:21:06;98953.72;;;2.39;100.00
12879;BME280;20617;49.476;10.986;2023-01-28T05:23:13;98957.13;;;2.47;100.00
12879;BME280;20617;49.476;10.986;2023-01-28T05:25:30;98952.00;;;2.55;100.00
12879;BME280;20617;49.476;10.986;2023-01-28T05:27:37;98952.88;;;2.63;100.00
12879;BME280;20617;49.476;10.986;2023-01-28T05:29:41;98951.19;;;2.68;100.00
12879;BME280;20617;49.476;10.986;2023-01-28T05:31:46;98953.72;;;2.69;100.00
12879;BME280;20617;49.476;10.986;2023-01-28T05:33:51;98952.03;;;2.68;100.00
12879;BME280;20617;49.476;10.986;2023-01-28T05:35:58;98956.31;;;2.69;100.00
12879;BME280;20617;49.476;10.986;2023-01-28T05:38:04;98959.72;;;2.67;100.00
12879;BME280;20617;49.476;10.986;2023-01-28T05:40:10;98956.31;;;2.71;100.00
12879;BME280;20617;49.476;10.986;2023-01-28T05:42:18;98950.28;;;2.64;100.00
12879;BME280;20617;49.476;10.986;2023-01-28T05:44:27;98958.88;;;2.74;100.00
12879;BME280;20617;49.476;10.986;2023-01-28T05:46:49;98956.31;;;2.74;100.00
12879;BME280;20617;49.476;10.986;2023-01-28T05:49:12;98951.16;;;2.79;100.00
12879;BME280;20617;49.476;10.986;2023-01-28T05:51:35;98960.59;;;2.84;100.00
12879;BME280;20617;49.476;10.986;2023-01-28T05:53:42;98969.16;;;2.89;100.00
12879;BME280;20617;49.476;10.986;2023-01-28T05:55:48;98964.03;;;2.92;100.00
12879;BME280;20617;49.476;10.986;2023-01-28T05:57:57;98964.91;;;2.94;100.00
12879;BME280;20617;49.476;10.986;2023-01-28T06:00:03;98972.59;;;2.87;100.00
12879;BME280;20617;49.476;10.986;2023-01-28T06:02:15;98959.75;;;2.90;100.00
12879;BME280;20617;49.476;10.986;2023-01-28T06:04:20;98964.03;;;2.92;100.00
12879;BME280;20617;49.476;10.986;2023-01-28T06:06:26;98969.16;;;2.88;100.00
12879;BME280;20617;49.476;10.986;2023-01-28T06:08:31;98965.75;;;2.89;100.00
12879;BME280;20617;49.476;10.986;2023-01-28T06:10:38;98966.59;;;2.88;100.00
12879;BME280;20617;49.476;10.986;2023-01-28T06:12:44;98974.34;;;2.91;100.00
12879;BME280;20617;49.476;10.986;2023-01-28T06:15:11;98972.59;;;2.90;100.00
12879;BME280;20617;49.476;10.986;2023-01-28T06:17:44;98972.59;;;2.81;100.00
12879;BME280;20617;49.476;10.986;2023-01-28T06:20:00;98975.16;;;2.75;100.00
12879;BME280;20617;49.476;10.986;2023-01-28T06:22:06;98982.00;;;2.66;100.00
12879;BME280;20617;49.476;10.986;2023-01-28T06:24:11;98983.75;;;2.74;100.00
12879;BME280;20617;49.476;10.986;2023-01-28T06:26:16;98982.88;;;2.68;100.00
12879;BME280;20617;49.476;10.986;2023-01-28T06:28:21;98989.75;;;2.71;100.00
12879;BME280;20617;49.476;10.986;2023-01-28T06:30:29;99000.03;;;2.74;100.00
12879;BME280;20617;49.476;10.986;2023-01-28T06:32:34;98990.56;;;2.79;100.00
12879;BME280;20617;49.476;10.986;2023-01-28T06:34:39;98991.44;;;2.81;100.00
12879;BME280;20617;49.476;10.986;2023-01-28T06:36:44;99000.88;;;2.84;100.00
12879;BME280;20617;49.476;10.986;2023-01-28T06:38:49;99007.75;;;2.74;100.00
12879;BME280;20617;49.476;10.986;2023-01-28T06:40:54;99006.00;;;2.75;100.00
12879;BME280;20617;49.476;10.986;2023-01-28T06:42:58;99013.72;;;2.75;100.00
12879;BME280;20617;49.476;10.986;2023-01-28T06:45:04;99013.72;;;2.79;100.00
12879;BME280;20617;49.476;10.986;2023-01-28T06:47:12;99012.00;;;2.69;100.00
12879;BME280;20617;49.476;10.986;2023-01-28T06:49:17;99018.84;;;2.79;100.00
12879;BME280;20617;49.476;10.986;2023-01-28T06:51:22;99018.03;;;2.80;100.00
12879;BME280;20617;49.476;10.986;2023-01-28T06:53:27;99018.91;;;2.88;100.00
12879;BME280;20617;49.476;10.986;2023-01-28T06:55:33;99022.31;;;2.93;100.00
12879;BME280;20617;49.476;10.986;2023-01-28T06:57:38;99023.19;;;3.02;100.00
12879;BME280;20617;49.476;10.986;2023-01-28T06:59:43;99014.59;;;3.04;100.00
12879;BME280;20617;49.476;10.986;2023-01-28T07:01:48;99021.44;;;3.05;100.00
12879;BME280;20617;49.476;10.986;2023-01-28T07:03:55;99024.91;;;3.09;100.00
12879;BME280;20617;49.476;10.986;2023-01-28T07:06:00;99023.19;;;3.06;100.00
12879;BME280;20617;49.476;10.986;2023-01-28T07:08:05;99022.34;;;3.06;100.00
12879;BME280;20617;49.476;10.986;2023-01-28T07:10:10;99027.47;;;3.01;100.00
12879;BME280;20617;49.476;10.986;2023-01-28T07:12:16;99024.03;;;2.99;100.00
12879;BME280;20617;49.476;10.986;2023-01-28T07:14:20;99032.63;;;3.00;100.00
12879;BME280;20617;49.476;10.986;2023-01-28T07:16:25;99032.63;;;3.03;100.00
12879;BME280;20617;49.476;10.986;2023-01-28T07:18:30;99036.91;;;2.91;100.00
12879;BME280;20617;49.476;10.986;2023-01-28T07:20:37;99037.72;;;2.90;100.00
12879;BME280;20617;49.476;10.986;2023-01-28T07:22:43;99035.19;;;2.92;100.00
12879;BME280;20617;49.476;10.986;2023-01-28T07:24:48;99048.03;;;2.98;100.00
12879;BME280;20617;49.476;10.986;2023-01-28T07:26:53;99053.19;;;2.92;100.00
12879;BME280;20617;49.476;10.986;2023-01-28T07:28:58;99049.75;;;2.98;100.00
12879;BME280;20617;49.476;10.986;2023-01-28T07:31:04;99053.19;;;3.00;100.00
12879;BME280;20617;49.476;10.986;2023-01-28T07:33:09;99050.63;;;3.00;100.00
12879;BME280;20617;49.476;10.986;2023-01-28T07:35:14;99054.91;;;2.94;100.00
12879;BME280;20617;49.476;10.986;2023-01-28T07:37:21;99048.00;;;2.84;100.00
12879;BME280;20617;49.476;10.986;2023-01-28T07:39:26;99057.44;;;2.78;100.00
12879;BME280;20617;49.476;10.986;2023-01-28T07:41:31;99048.00;;;2.72;100.00
12879;BME280;20617;49.476;10.986;2023-01-28T07:43:40;99057.41;;;2.76;100.00
12879;BME280;20617;49.476;10.986;2023-01-28T07:45:46;99056.56;;;2.71;100.00
12879;BME280;20617;49.476;10.986;2023-01-28T07:47:55;99057.44;;;2.71;100.00
12879;BME280;20617;49.476;10.986;2023-01-28T07:50:00;99061.69;;;2.66;100.00
12879;BME280;20617;49.476;10.986;2023-01-28T07:52:05;99062.53;;;2.64;100.00
12879;BME280;20617;49.476;10.986;2023-01-28T07:54:13;99060.81;;;2.67;100.00
12879;BME280;20617;49.476;10.986;2023-01-28T07:56:18;99065.97;;;2.63;100.00
12879;BME280;20617;49.476;10.986;2023-01-28T07:58:23;99060.84;;;2.66;100.00
12879;BME280;20617;49.476;10.986;2023-01-28T08:00:29;99067.72;;;2.71;100.00
12879;BME280;20617;49.476;10.986;2023-01-28T08:02:34;99072.84;;;2.73;100.00
12879;BME280;20617;49.476;10.986;2023-01-28T08:04:39;99074.50;;;2.54;100.00
12879;BME280;20617;49.476;10.986;2023-01-28T08:06:44;99071.09;;;2.58;100.00
12879;BME280;20617;49.476;10.986;2023-01-28T08:08:49;99078.81;;;2.54;100.00
12879;BME280;20617;49.476;10.986;2023-01-28T08:10:57;99077.09;;;2.54;100.00
12879;BME280;20617;49.476;10.986;2023-01-28T08:13:02;99075.41;;;2.59;100.00
12879;BME280;20617;49.476;10.986;2023-01-28T08:15:08;99074.53;;;2.57;100.00
12879;BME280;20617;49.476;10.986;2023-01-28T08:17:13;99077.13;;;2.65;100.00
12879;BME280;20617;49.476;10.986;2023-01-28T08:19:18;99084.84;;;2.71;100.00
12879;BME280;20617;49.476;10.986;2023-01-28T08:21:23;99073.72;;;2.75;100.00
12879;BME280;20617;49.476;10.986;2023-01-28T08:23:28;99086.53;;;2.60;100.00
12879;BME280;20617;49.476;10.986;2023-01-28T08:25:35;99082.25;;;2.66;100.00
12879;BME280;20617;49.476;10.986;2023-01-28T08:27:42;99084.00;;;2.77;100.00
12879;BME280;20617;49.476;10.986;2023-01-28T08:29:47;99080.56;;;2.79;100.00
12879;BME280;20617;49.476;10.986;2023-01-28T08:31:52;99072.88;;;2.81;100.00
12879;BME280;20617;49.476;10.986;2023-01-28T08:33:57;99080.59;;;2.78;100.00
12879;BME280;20617;49.476;10.986;2023-01-28T08:36:04;99080.56;;;2.71;100.00
12879;BME280;20617;49.476;10.986;2023-01-28T08:38:09;99081.41;;;2.72;100.00
12879;BME280;20617;49.476;10.986;2023-01-28T08:40:16;99084.00;;;2.77;100.00
12879;BME280;20617;49.476;10.986;2023-01-28T08:42:21;99081.41;;;2.70;100.00
12879;BME280;20617;49.476;10.986;2023-01-28T08:44:28;99074.56;;;2.82;100.00
12879;BME280;20617;49.476;10.986;2023-01-28T08:46:33;99075.44;;;2.78;100.00
12879;BME280;20617;49.476;10.986;2023-01-28T08:48:38;99084.03;;;2.80;100.00
12879;BME280;20617;49.476;10.986;2023-01-28T08:50:43;99076.28;;;2.72;100.00
12879;BME280;20617;49.476;10.986;2023-01-28T08:52:54;99083.13;;;2.79;100.00
12879;BME280;20617;49.476;10.986;2023-01-28T08:54:59;99085.69;;;2.67;100.00
12879;BME280;20617;49.476;10.986;2023-01-28T08:57:04;99091.69;;;2.67;100.00
12879;BME280;20617;49.476;10.986;2023-01-28T08:59:09;99088.28;;;2.71;100.00
12879;BME280;20617;49.476;10.986;2023-01-28T09:01:16;99091.72;;;2.74;100.00
12879;BME280;20617;49.476;10.986;2023-01-28T09:03:21;99090.00;;;2.77;100.00
12879;BME280;20617;49.476;10.986;2023-01-28T09:05:26;99083.13;;;2.76;100.00
12879;BME280;20617;49.476;10.986;2023-01-28T09:07:33;99082.31;;;2.83;100.00
12879;BME280;20617;49.476;10.986;2023-01-28T09:09:38;99085.75;;;2.90;100.00
12879;BME280;20617;49.476;10.986;2023-01-28T09:11:43;99074.56;;;2.82;100.00
12879;BME280;20617;49.476;10.986;2023-01-28T09:13:48;99086.59;;;2.86;100.00
12879;BME280;20617;49.476;10.986;2023-01-28T09:15:53;99082.31;;;2.92;100.00
12879;BME280;20617;49.476;10.986;2023-01-28T09:18:01;99083.19;;;2.94;100.00
12879;BME280;20617;49.476;10.986;2023-01-28T09:20:07;99078.91;;;2.95;100.00
12879;BME280;20617;49.476;10.986;2023-01-28T09:22:13;99079.75;;;2.95;100.00
12879;BME280;20617;49.476;10.986;2023-01-28T09:24:18;99092.63;;;2.95;100.00
12879;BME280;20617;49.476;10.986;2023-01-28T09:26:23;99084.03;;;2.98;100.00
12879;BME280;20617;49.476;10.986;2023-01-28T09:28:28;99086.59;;;2.93;100.00
12879;BME280;20617;49.476;10.986;2023-01-28T09:30:33;99090.03;;;3.02;100.00
12879;BME280;20617;49.476;10.986;2023-01-28T09:32:40;99094.34;;;3.00;100.00
12879;BME280;20617;49.476;10.986;2023-01-28T09:34:48;99096.03;;;2.96;100.00
12879;BME280;20617;49.476;10.986;2023-01-28T09:36:52;99094.34;;;3.07;100.00
12879;BME280;20617;49.476;10.986;2023-01-28T09:38:57;99100.34;;;3.14;100.00
12879;BME280;20617;49.476;10.986;2023-01-28T09:41:16;99090.06;;;3.11;100.00
12879;BME280;20617;49.476;10.986;2023-01-28T09:43:48;99104.66;;;3.16;100.00
12879;BME280;20617;49.476;10.986;2023-01-28T09:45:59;99106.38;;;3.22;100.00
12879;BME280;20617;49.476;10.986;2023-01-28T09:48:09;99102.91;;;2.99;100.00
12879;BME280;20617;49.476;10.986;2023-01-28T09:50:25;99116.63;;;2.99;100.00
12879;BME280;20617;49.476;10.986;2023-01-28T09:52:34;99104.66;;;3.06;100.00
12879;BME280;20617;49.476;10.986;2023-01-28T09:54:44;99112.38;;;3.09;100.00
12879;BME280;20617;49.476;10.986;2023-01-28T09:56:53;99108.03;;;2.95;100.00
12879;BME280;20617;49.476;10.986;2023-01-28T09:59:13;99114.94;;;3.07;100.00
12879;BME280;20617;49.476;10.986;2023-01-28T10:01:35;99112.38;;;3.12;100.00
12879;BME280;20617;49.476;10.986;2023-01-28T10:03:51;99110.66;;;3.06;100.00
12879;BME280;20617;49.476;10.986;2023-01-28T10:06:07;99109.78;;;3.03;100.00
12879;BME280;20617;49.476;10.986;2023-01-28T10:08:27;99110.63;;;2.94;100.00
12879;BME280;20617;49.476;10.986;2023-01-28T10:10:40;99103.75;;;2.87;100.00
12879;BME280;20617;49.476;10.986;2023-01-28T10:13:01;99101.16;;;2.81;100.00
12879;BME280;20617;49.476;10.986;2023-01-28T10:15:27;99106.31;;;2.90;100.00
12879;BME280;20617;49.476;10.986;2023-01-28T10:17:37;99097.78;;;2.94;100.00
12879;BME280;20617;49.476;10.986;2023-01-28T10:19:48;99102.88;;;2.89;100.00
12879;BME280;20617;49.476;10.986;2023-01-28T10:22:00;99103.75;;;2.82;100.00
12879;BME280;20617;49.476;10.986;2023-01-28T10:24:10;99103.75;;;2.91;100.00
12879;BME280;20617;49.476;10.986;2023-01-28T10:26:22;99095.16;;;2.83;100.00
12879;BME280;20617;49.476;10.986;2023-01-28T10:28:28;99108.03;;;2.86;100.00
12879;BME280;20617;49.476;10.986;2023-01-28T10:30:44;99106.31;;;2.90;100.00
12879;BME280;20617;49.476;10.986;2023-01-28T10:32:52;99108.00;;;2.82;100.00
12879;BME280;20617;49.476;10.986;2023-01-28T10:34:57;99096.91;;;2.92;100.00
12879;BME280;20617;49.476;10.986;2023-01-28T10:37:08;99088.31;;;3.02;100.00
12879;BME280;20617;49.476;10.986;2023-01-28T10:39:18;99093.53;;;3.17;100.00
12879;BME280;20617;49.476;10.986;2023-01-28T10:41:23;99089.22;;;3.09;100.00
12879;BME280;20617;49.476;10.986;2023-01-28T10:43:30;99090.94;;;3.17;100.00
12879;BME280;20617;49.476;10.986;2023-01-28T10:45:40;99090.06;;;3.14;100.00
12879;BME280;20617;49.476;10.986;2023-01-28T10:47:49;99087.53;;;3.20;100.00
12879;BME280;20617;49.476;10.986;2023-01-28T10:49:57;99087.53;;;3.26;100.00
12879;BME280;20617;49.476;10.986;2023-01-28T10:52:13;99084.94;;;3.28;100.00
12879;BME280;20617;49.476;10.986;2023-01-28T10:54:21;99080.66;;;3.33;100.00
12879;BME280;20617;49.476;10.986;2023-01-28T10:56:29;99087.53;;;3.46;100.00
12879;BME280;20617;49.476;10.986;2023-01-28T10:58:46;99087.50;;;3.57;100.00
12879;BME280;20617;49.476;10.986;2023-01-28T11:00:56;99092.66;;;3.63;100.00
12879;BME280;20617;49.476;10.986;2023-01-28T11:03:03;99087.50;;;3.65;100.00
12879;BME280;20617;49.476;10.986;2023-01-28T11:05:15;99091.78;;;3.76;100.00
12879;BME280;20617;49.476;10.986;2023-01-28T11:07:24;99093.53;;;3.70;100.00
12879;BME280;20617;49.476;10.986;2023-01-28T11:09:31;99082.34;;;3.74;100.00
12879;BME280;20617;49.476;10.986;2023-01-28T11:11:37;99084.06;;;3.70;100.00
12879;BME280;20617;49.476;10.986;2023-01-28T11:13:49;99090.06;;;3.80;100.00
12879;BME280;20617;49.476;10.986;2023-01-28T11:15:58;99083.19;;;3.85;100.00
12879;BME280;20617;49.476;10.986;2023-01-28T11:18:05;99087.44;;;4.06;100.00